sensor_id;sensor_type;location;lat;lon;timestamp;temperature;humidity
3715;DHT22;1873;49.988;8.674;2022-09-09T00:01:27;18.20;99.90
3715;DHT22;1873;49.988;8.674;2022-09-09T00:04:00;18.30;99.90
3715;DHT22;1873;49.988;8.674;2022-09-09T00:06:32;18.30;99.90
3715;DHT22;1873;49.988;8.674;2022-09-09T00:09:08;18.30;99.90
3715;DHT22;1873;49.988;8.674;2022-09-09T00:11:43;18.30;99.90
3715;DHT22;1873;49.988;8.674;2022-09-09T00:14:20;18.20;99.90
3715;DHT22;1873;49.988;8.674;2022-09-09T00:16:55;18.20;99.90
3715;DHT22;1873;49.988;8.674;2022-09-09T00:19:33;18.10;99.90
3715;DHT22;1873;49.988;8.674;2022-09-09T00:22:15;18.10;99.90
3715;DHT22;1873;49.988;8.674;2022-09-09T00:24:46;18.00;99.90
3715;DHT22;1873;49.988;8.674;2022-09-09T00:27:25;18.00;99.90
3715;DHT22;1873;49.988;8.674;2022-09-09T00:29:58;17.90;99.90
3715;DHT22;1873;49.988;8.674;2022-09-09T00:32:30;17.90;99.90
3715;DHT22;1873;49.988;8.674;2022-09-09T00:35:10;17.90;99.90
3715;DHT22;1873;49.988;8.674;2022-09-09T00:37:43;17.90;99.90
3715;DHT22;1873;49.988;8.674;2022-09-09T00:40:22;17.90;99.90
3715;DHT22;1873;49.988;8.674;2022-09-09T00:42:58;17.80;99.90
3715;DHT22;1873;49.988;8.674;2022-09-09T00:46:05;17.80;99.90
3715;DHT22;1873;49.988;8.674;2022-09-09T00:48:43;17.80;99.90
3715;DHT22;1873;49.988;8.674;2022-09-09T00:51:15;17.80;99.90
3715;DHT22;1873;49.988;8.674;2022-09-09T00:54:03;17.80;99.90
3715;DHT22;1873;49.988;8.674;2022-09-09T00:56:39;17.80;99.90
3715;DHT22;1873;49.988;8.674;2022-09-09T00:59:16;17.80;99.90
3715;DHT22;1873;49.988;8.674;2022-09-09T01:01:54;17.60;99.90
3715;DHT22;1873;49.988;8.674;2022-09-09T01:04:29;17.60;99.90
3715;DHT22;1873;49.988;8.674;2022-09-09T01:07:11;17.60;99.90
3715;DHT22;1873;49.988;8.674;2022-09-09T01:09:50;17.60;99.90
3715;DHT22;1873;49.988;8.674;2022-09-09T01:12:26;17.60;99.90
3715;DHT22;1873;49.988;8.674;2022-09-09T01:15:03;17.60;99.90
3715;DHT22;1873;49.988;8.674;2022-09-09T01:17:34;17.60;99.90
3715;DHT22;1873;49.988;8.674;2022-09-09T01:20:13;17.50;99.90
3715;DHT22;1873;49.988;8.674;2022-09-09T01:22:52;17.60;99.90
3715;DHT22;1873;49.988;8.674;2022-09-09T01:25:56;17.50;99.90
3715;DHT22;1873;49.988;8.674;2022-09-09T01:28:28;17.50;99.90
3715;DHT22;1873;49.988;8.674;2022-09-09T01:30:59;17.50;99.90
3715;DHT22;1873;49.988;8.674;2022-09-09T01:33:28;17.50;99.90
3715;DHT22;1873;49.988;8.674;2022-09-09T01:36:02;17.50;99.90
3715;DHT22;1873;49.988;8.674;2022-09-09T01:38:32;17.50;99.90
3715;DHT22;1873;49.988;8.674;2022-09-09T01:41:05;17.50;99.90
3715;DHT22;1873;49.988;8.674;2022-09-09T01:43:33;17.50;99.90
3715;DHT22;1873;49.988;8.674;2022-09-09T01:46:01;17.60;99.90
3715;DHT22;1873;49.988;8.674;2022-09-09T01:48:31;17.60;99.90
3715;DHT22;1873;49.988;8.674;2022-09-09T01:51:00;17.50;99.90
3715;DHT22;1873;49.988;8.674;2022-09-09T01:53:28;17.50;99.90
3715;DHT22;1873;49.988;8.674;2022-09-09T01:56:04;17.60;99.90
3715;DHT22;1873;49.988;8.674;2022-09-09T01:58:45;17.60;99.90
3715;DHT22;1873;49.988;8.674;2022-09-09T02:01:24;17.60;99.90
3715;DHT22;1873;49.988;8.674;2022-09-09T02:03:57;17.50;99.90
3715;DHT22;1873;49.988;8.674;2022-09-09T02:06:31;17.60;99.90
3715;DHT22;1873;49.988;8.674;2022-09-09T02:09:05;17.50;99.90
3715;DHT22;1873;49.988;8.674;2022-09-09T02:11:35;17.50;99.90
3715;DHT22;1873;49.988;8.674;2022-09-09T02:14:08;17.40;99.90
3715;DHT22;1873;49.988;8.674;2022-09-09T02:16:40;17.40;99.90
3715;DHT22;1873;49.988;8.674;2022-09-09T02:19:13;17.40;99.90
3715;DHT22;1873;49.988;8.674;2022-09-09T02:21:44;17.40;99.90
3715;DHT22;1873;49.988;8.674;2022-09-09T02:24:14;17.40;99.90
3715;DHT22;1873;49.988;8.674;2022-09-09T02:26:47;17.50;99.90
3715;DHT22;1873;49.988;8.674;2022-09-09T02:29:19;17.50;99.90
3715;DHT22;1873;49.988;8.674;2022-09-09T02:31:51;17.50;99.90
3715;DHT22;1873;49.988;8.674;2022-09-09T02:34:23;17.50;99.90
3715;DHT22;1873;49.988;8.674;2022-09-09T02:36:55;17.50;99.90
3715;DHT22;1873;49.988;8.674;2022-09-09T02:39:25;17.50;99.90
3715;DHT22;1873;49.988;8.674;2022-09-09T02:41:56;17.60;99.90
3715;DHT22;1873;49.988;8.674;2022-09-09T02:44:25;17.50;99.90
3715;DHT22;1873;49.988;8.674;2022-09-09T02:47:08;17.50;99.90
3715;DHT22;1873;49.988;8.674;2022-09-09T02:49:45;17.60;99.90
3715;DHT22;1873;49.988;8.674;2022-09-09T02:52:19;17.60;99.90
3715;DHT22;1873;49.988;8.674;2022-09-09T02:54:54;17.60;99.90
3715;DHT22;1873;49.988;8.674;2022-09-09T02:57:27;17.60;99.90
3715;DHT22;1873;49.988;8.674;2022-09-09T02:59:57;17.60;99.90
3715;DHT22;1873;49.988;8.674;2022-09-09T03:02:27;17.60;99.90
3715;DHT22;1873;49.988;8.674;2022-09-09T03:04:55;17.60;99.90
3715;DHT22;1873;49.988;8.674;2022-09-09T03:07:24;17.70;99.90
3715;DHT22;1873;49.988;8.674;2022-09-09T03:09:54;17.80;99.90
3715;DHT22;1873;49.988;8.674;2022-09-09T03:12:22;17.80;99.90
3715;DHT22;1873;49.988;8.674;2022-09-09T03:14:52;17.80;99.90
3715;DHT22;1873;49.988;8.674;2022-09-09T03:17:21;17.80;99.90
3715;DHT22;1873;49.988;8.674;2022-09-09T03:19:49;17.80;99.90
3715;DHT22;1873;49.988;8.674;2022-09-09T03:22:19;17.80;99.90
3715;DHT22;1873;49.988;8.674;2022-09-09T03:24:47;17.80;99.90
3715;DHT22;1873;49.988;8.674;2022-09-09T03:27:16;17.80;99.90
3715;DHT22;1873;49.988;8.674;2022-09-09T03:29:44;17.70;99.90
3715;DHT22;1873;49.988;8.674;2022-09-09T03:32:14;17.80;99.90
3715;DHT22;1873;49.988;8.674;2022-09-09T03:34:44;17.70;99.90
3715;DHT22;1873;49.988;8.674;2022-09-09T03:37:14;17.70;99.90
3715;DHT22;1873;49.988;8.674;2022-09-09T03:39:42;17.70;99.90
3715;DHT22;1873;49.988;8.674;2022-09-09T03:42:12;17.60;99.90
3715;DHT22;1873;49.988;8.674;2022-09-09T03:44:40;17.60;99.90
3715;DHT22;1873;49.988;8.674;2022-09-09T03:47:09;17.60;99.90
3715;DHT22;1873;49.988;8.674;2022-09-09T03:49:38;17.60;99.90
3715;DHT22;1873;49.988;8.674;2022-09-09T03:52:08;17.60;99.90
3715;DHT22;1873;49.988;8.674;2022-09-09T03:54:37;17.60;99.90
3715;DHT22;1873;49.988;8.674;2022-09-09T03:57:05;17.60;99.90
3715;DHT22;1873;49.988;8.674;2022-09-09T03:59:33;17.60;99.90
3715;DHT22;1873;49.988;8.674;2022-09-09T04:02:02;17.50;99.90
3715;DHT22;1873;49.988;8.674;2022-09-09T04:04:31;17.50;99.90
3715;DHT22;1873;49.988;8.674;2022-09-09T04:07:00;17.40;99.90
3715;DHT22;1873;49.988;8.674;2022-09-09T04:09:29;17.40;99.90
3715;DHT22;1873;49.988;8.674;2022-09-09T04:11:57;17.40;99.90
3715;DHT22;1873;49.988;8.674;2022-09-09T04:14:25;17.40;99.90
3715;DHT22;1873;49.988;8.674;2022-09-09T04:16:55;17.30;99.90
3715;DHT22;1873;49.988;8.674;2022-09-09T04:19:24;17.30;99.90
3715;DHT22;1873;49.988;8.674;2022-09-09T04:21:52;17.30;99.90
3715;DHT22;1873;49.988;8.674;2022-09-09T04:24:24;17.20;99.90
3715;DHT22;1873;49.988;8.674;2022-09-09T04:26:55;17.10;99.90
3715;DHT22;1873;49.988;8.674;2022-09-09T04:29:24;17.10;99.90
3715;DHT22;1873;49.988;8.674;2022-09-09T04:31:52;17.10;99.90
3715;DHT22;1873;49.988;8.674;2022-09-09T04:34:20;17.10;99.90
3715;DHT22;1873;49.988;8.674;2022-09-09T04:36:49;17.00;99.90
3715;DHT22;1873;49.988;8.674;2022-09-09T04:39:18;17.10;99.90
3715;DHT22;1873;49.988;8.674;2022-09-09T04:41:48;17.00;99.90
3715;DHT22;1873;49.988;8.674;2022-09-09T04:44:16;17.10;99.90
3715;DHT22;1873;49.988;8.674;2022-09-09T04:46:44;17.10;99.90
3715;DHT22;1873;49.988;8.674;2022-09-09T04:49:12;17.10;99.90
3715;DHT22;1873;49.988;8.674;2022-09-09T04:51:41;17.20;99.90
3715;DHT22;1873;49.988;8.674;2022-09-09T04:54:09;17.20;99.90
3715;DHT22;1873;49.988;8.674;2022-09-09T04:56:38;17.20;99.90
3715;DHT22;1873;49.988;8.674;2022-09-09T04:59:10;17.20;99.90
3715;DHT22;1873;49.988;8.674;2022-09-09T05:01:39;17.20;99.90
3715;DHT22;1873;49.988;8.674;2022-09-09T05:04:07;17.10;99.90
3715;DHT22;1873;49.988;8.674;2022-09-09T05:06:36;17.10;99.90
3715;DHT22;1873;49.988;8.674;2022-09-09T05:09:04;17.00;99.90
3715;DHT22;1873;49.988;8.674;2022-09-09T05:11:33;16.90;99.90
3715;DHT22;1873;49.988;8.674;2022-09-09T05:14:03;16.80;99.90
3715;DHT22;1873;49.988;8.674;2022-09-09T05:16:33;16.90;99.90
3715;DHT22;1873;49.988;8.674;2022-09-09T05:19:02;16.80;99.90
3715;DHT22;1873;49.988;8.674;2022-09-09T05:21:30;16.90;99.90
3715;DHT22;1873;49.988;8.674;2022-09-09T05:23:59;16.90;99.90
3715;DHT22;1873;49.988;8.674;2022-09-09T05:26:27;16.90;99.90
3715;DHT22;1873;49.988;8.674;2022-09-09T05:28:56;17.00;99.90
3715;DHT22;1873;49.988;8.674;2022-09-09T05:31:26;16.90;99.90
3715;DHT22;1873;49.988;8.674;2022-09-09T05:33:56;16.90;99.90
3715;DHT22;1873;49.988;8.674;2022-09-09T05:36:25;16.90;99.90
3715;DHT22;1873;49.988;8.674;2022-09-09T05:38:54;16.90;99.90
3715;DHT22;1873;49.988;8.674;2022-09-09T05:41:22;16.80;99.90
3715;DHT22;1873;49.988;8.674;2022-09-09T05:43:50;16.80;99.90
3715;DHT22;1873;49.988;8.674;2022-09-09T05:46:21;16.80;99.90
3715;DHT22;1873;49.988;8.674;2022-09-09T05:48:50;16.80;99.90
3715;DHT22;1873;49.988;8.674;2022-09-09T05:51:23;16.80;99.90
3715;DHT22;1873;49.988;8.674;2022-09-09T05:53:52;16.80;99.90
3715;DHT22;1873;49.988;8.674;2022-09-09T05:56:23;16.70;99.90
3715;DHT22;1873;49.988;8.674;2022-09-09T05:58:52;16.70;99.90
3715;DHT22;1873;49.988;8.674;2022-09-09T06:01:22;16.70;99.90
3715;DHT22;1873;49.988;8.674;2022-09-09T06:03:51;16.70;99.90
3715;DHT22;1873;49.988;8.674;2022-09-09T06:06:22;16.70;99.90
3715;DHT22;1873;49.988;8.674;2022-09-09T06:08:54;16.70;99.90
3715;DHT22;1873;49.988;8.674;2022-09-09T06:11:25;16.90;99.90
3715;DHT22;1873;49.988;8.674;2022-09-09T06:13:53;16.80;99.90
3715;DHT22;1873;49.988;8.674;2022-09-09T06:16:24;16.90;99.90
3715;DHT22;1873;49.988;8.674;2022-09-09T06:18:54;17.00;99.90
3715;DHT22;1873;49.988;8.674;2022-09-09T06:21:26;17.10;99.90
3715;DHT22;1873;49.988;8.674;2022-09-09T06:23:54;17.10;99.90
3715;DHT22;1873;49.988;8.674;2022-09-09T06:26:28;17.20;99.90
3715;DHT22;1873;49.988;8.674;2022-09-09T06:28:58;17.40;99.90
3715;DHT22;1873;49.988;8.674;2022-09-09T06:31:28;17.50;99.90
3715;DHT22;1873;49.988;8.674;2022-09-09T06:33:58;17.60;99.90
3715;DHT22;1873;49.988;8.674;2022-09-09T06:36:30;17.60;99.90
3715;DHT22;1873;49.988;8.674;2022-09-09T06:38:59;17.70;99.90
3715;DHT22;1873;49.988;8.674;2022-09-09T06:41:28;18.10;99.90
3715;DHT22;1873;49.988;8.674;2022-09-09T06:43:57;18.70;99.90
3715;DHT22;1873;49.988;8.674;2022-09-09T06:46:27;19.30;99.90
3715;DHT22;1873;49.988;8.674;2022-09-09T06:48:57;19.10;99.90
3715;DHT22;1873;49.988;8.674;2022-09-09T06:51:29;18.80;99.90
3715;DHT22;1873;49.988;8.674;2022-09-09T06:53:58;18.70;99.90
3715;DHT22;1873;49.988;8.674;2022-09-09T06:56:30;18.50;99.90
3715;DHT22;1873;49.988;8.674;2022-09-09T06:58:59;18.30;99.90
3715;DHT22;1873;49.988;8.674;2022-09-09T07:01:32;18.30;99.90
3715;DHT22;1873;49.988;8.674;2022-09-09T07:04:04;18.20;99.90
3715;DHT22;1873;49.988;8.674;2022-09-09T07:06:38;18.20;99.90
3715;DHT22;1873;49.988;8.674;2022-09-09T07:09:08;18.10;99.90
3715;DHT22;1873;49.988;8.674;2022-09-09T07:11:38;18.00;99.90
3715;DHT22;1873;49.988;8.674;2022-09-09T07:14:09;18.00;99.90
3715;DHT22;1873;49.988;8.674;2022-09-09T07:16:40;17.80;99.90
3715;DHT22;1873;49.988;8.674;2022-09-09T07:19:09;17.70;99.90
3715;DHT22;1873;49.988;8.674;2022-09-09T07:21:39;17.60;99.90
3715;DHT22;1873;49.988;8.674;2022-09-09T07:24:10;17.70;99.90
3715;DHT22;1873;49.988;8.674;2022-09-09T07:26:39;17.60;99.90
3715;DHT22;1873;49.988;8.674;2022-09-09T07:29:08;17.70;99.90
3715;DHT22;1873;49.988;8.674;2022-09-09T07:31:38;17.70;99.90
3715;DHT22;1873;49.988;8.674;2022-09-09T07:34:07;17.60;99.90
3715;DHT22;1873;49.988;8.674;2022-09-09T07:36:36;17.60;99.90
3715;DHT22;1873;49.988;8.674;2022-09-09T07:39:09;17.60;99.90
3715;DHT22;1873;49.988;8.674;2022-09-09T07:41:39;17.60;99.90
3715;DHT22;1873;49.988;8.674;2022-09-09T07:44:10;17.60;99.90
3715;DHT22;1873;49.988;8.674;2022-09-09T07:46:40;17.70;99.90
3715;DHT22;1873;49.988;8.674;2022-09-09T07:49:09;17.60;99.90
3715;DHT22;1873;49.988;8.674;2022-09-09T07:51:39;17.70;99.90
3715;DHT22;1873;49.988;8.674;2022-09-09T07:54:12;17.60;99.90
3715;DHT22;1873;49.988;8.674;2022-09-09T07:56:42;17.60;99.90
3715;DHT22;1873;49.988;8.674;2022-09-09T07:59:10;17.70;99.90
3715;DHT22;1873;49.988;8.674;2022-09-09T08:01:40;17.80;99.90
3715;DHT22;1873;49.988;8.674;2022-09-09T08:04:10;17.90;99.90
3715;DHT22;1873;49.988;8.674;2022-09-09T08:06:43;17.90;99.90
3715;DHT22;1873;49.988;8.674;2022-09-09T08:09:15;17.90;99.90
3715;DHT22;1873;49.988;8.674;2022-09-09T08:11:46;17.80;99.90
3715;DHT22;1873;49.988;8.674;2022-09-09T08:14:14;17.90;99.90
3715;DHT22;1873;49.988;8.674;2022-09-09T08:16:48;17.90;99.90
3715;DHT22;1873;49.988;8.674;2022-09-09T08:19:20;18.10;99.90
3715;DHT22;1873;49.988;8.674;2022-09-09T08:21:49;18.00;99.90
3715;DHT22;1873;49.988;8.674;2022-09-09T08:24:19;18.10;99.90
3715;DHT22;1873;49.988;8.674;2022-09-09T08:26:48;18.10;99.90
3715;DHT22;1873;49.988;8.674;2022-09-09T08:29:17;18.10;99.90
3715;DHT22;1873;49.988;8.674;2022-09-09T08:31:47;18.20;99.90
3715;DHT22;1873;49.988;8.674;2022-09-09T08:34:15;18.20;99.90
3715;DHT22;1873;49.988;8.674;2022-09-09T08:36:47;18.30;99.90
3715;DHT22;1873;49.988;8.674;2022-09-09T08:39:17;18.40;99.90
3715;DHT22;1873;49.988;8.674;2022-09-09T08:42:11;18.50;99.90
3715;DHT22;1873;49.988;8.674;2022-09-09T08:44:56;18.50;99.90
3715;DHT22;1873;49.988;8.674;2022-09-09T08:47:32;18.50;99.90
3715;DHT22;1873;49.988;8.674;2022-09-09T08:50:13;18.40;99.90
3715;DHT22;1873;49.988;8.674;2022-09-09T08:52:53;18.30;99.90
3715;DHT22;1873;49.988;8.674;2022-09-09T08:55:35;18.60;99.90
3715;DHT22;1873;49.988;8.674;2022-09-09T08:58:12;18.70;99.90
3715;DHT22;1873;49.988;8.674;2022-09-09T09:00:56;18.70;99.90
3715;DHT22;1873;49.988;8.674;2022-09-09T09:03:33;18.80;99.90
3715;DHT22;1873;49.988;8.674;2022-09-09T09:06:13;18.80;99.90
3715;DHT22;1873;49.988;8.674;2022-09-09T09:08:56;18.90;99.90
3715;DHT22;1873;49.988;8.674;2022-09-09T09:11:34;19.00;99.90
3715;DHT22;1873;49.988;8.674;2022-09-09T09:14:10;19.10;99.90
3715;DHT22;1873;49.988;8.674;2022-09-09T09:16:48;19.40;99.90
3715;DHT22;1873;49.988;8.674;2022-09-09T09:19:18;19.60;99.90
3715;DHT22;1873;49.988;8.674;2022-09-09T09:21:54;19.80;99.90
3715;DHT22;1873;49.988;8.674;2022-09-09T09:24:28;19.60;99.90
3715;DHT22;1873;49.988;8.674;2022-09-09T09:27:12;19.70;99.90
3715;DHT22;1873;49.988;8.674;2022-09-09T09:29:44;19.50;99.90
3715;DHT22;1873;49.988;8.674;2022-09-09T09:32:36;19.40;99.90
3715;DHT22;1873;49.988;8.674;2022-09-09T09:35:12;19.40;99.90
3715;DHT22;1873;49.988;8.674;2022-09-09T09:37:42;19.30;99.90
3715;DHT22;1873;49.988;8.674;2022-09-09T09:40:32;19.00;99.90
3715;DHT22;1873;49.988;8.674;2022-09-09T09:43:01;18.90;99.90
3715;DHT22;1873;49.988;8.674;2022-09-09T09:45:41;19.00;99.90
3715;DHT22;1873;49.988;8.674;2022-09-09T09:48:36;19.40;99.90
3715;DHT22;1873;49.988;8.674;2022-09-09T09:51:09;19.80;99.90
3715;DHT22;1873;49.988;8.674;2022-09-09T09:53:40;19.60;99.90
3715;DHT22;1873;49.988;8.674;2022-09-09T09:56:09;19.40;99.90
3715;DHT22;1873;49.988;8.674;2022-09-09T09:58:49;19.40;99.90
3715;DHT22;1873;49.988;8.674;2022-09-09T10:01:21;19.40;99.90
3715;DHT22;1873;49.988;8.674;2022-09-09T10:03:52;19.30;99.90
3715;DHT22;1873;49.988;8.674;2022-09-09T10:06:32;19.20;99.90
3715;DHT22;1873;49.988;8.674;2022-09-09T10:09:02;19.30;99.90
3715;DHT22;1873;49.988;8.674;2022-09-09T10:11:45;19.10;99.90
3715;DHT22;1873;49.988;8.674;2022-09-09T10:14:20;18.60;99.90
3715;DHT22;1873;49.988;8.674;2022-09-09T10:17:02;18.30;99.90
3715;DHT22;1873;49.988;8.674;2022-09-09T10:19:37;18.30;99.90
3715;DHT22;1873;49.988;8.674;2022-09-09T10:22:14;18.20;99.90
3715;DHT22;1873;49.988;8.674;2022-09-09T10:28:01;18.20;99.90
3715;DHT22;1873;49.988;8.674;2022-09-09T10:30:44;17.60;99.90
3715;DHT22;1873;49.988;8.674;2022-09-09T10:33:27;16.90;99.90
3715;DHT22;1873;49.988;8.674;2022-09-09T10:36:05;16.40;99.90
3715;DHT22;1873;49.988;8.674;2022-09-09T10:38:40;16.60;99.90
3715;DHT22;1873;49.988;8.674;2022-09-09T10:41:15;16.70;99.90
3715;DHT22;1873;49.988;8.674;2022-09-09T10:44:05;16.90;99.90
3715;DHT22;1873;49.988;8.674;2022-09-09T10:46:45;17.10;99.90
3715;DHT22;1873;49.988;8.674;2022-09-09T10:49:26;17.50;99.90
3715;DHT22;1873;49.988;8.674;2022-09-09T10:52:01;17.90;99.90
3715;DHT22;1873;49.988;8.674;2022-09-09T10:54:42;18.40;99.90
3715;DHT22;1873;49.988;8.674;2022-09-09T10:57:24;18.90;99.90
3715;DHT22;1873;49.988;8.674;2022-09-09T10:59:58;19.30;99.90
3715;DHT22;1873;49.988;8.674;2022-09-09T11:05:05;19.40;99.90
3715;DHT22;1873;49.988;8.674;2022-09-09T11:07:40;19.90;99.90
3715;DHT22;1873;49.988;8.674;2022-09-09T11:10:20;20.10;99.90
3715;DHT22;1873;49.988;8.674;2022-09-09T11:12:54;20.00;99.90
3715;DHT22;1873;49.988;8.674;2022-09-09T11:15:29;19.80;99.90
3715;DHT22;1873;49.988;8.674;2022-09-09T11:18:01;19.80;99.90
3715;DHT22;1873;49.988;8.674;2022-09-09T11:20:34;19.60;99.90
3715;DHT22;1873;49.988;8.674;2022-09-09T11:23:08;19.50;99.90
3715;DHT22;1873;49.988;8.674;2022-09-09T11:25:41;19.40;99.90
3715;DHT22;1873;49.988;8.674;2022-09-09T11:28:32;19.30;99.90
3715;DHT22;1873;49.988;8.674;2022-09-09T11:31:21;19.30;99.90
3715;DHT22;1873;49.988;8.674;2022-09-09T11:34:04;19.50;99.90
3715;DHT22;1873;49.988;8.674;2022-09-09T11:36:48;19.60;99.90
3715;DHT22;1873;49.988;8.674;2022-09-09T11:42:32;19.60;99.90
3715;DHT22;1873;49.988;8.674;2022-09-09T11:45:10;19.60;99.90
3715;DHT22;1873;49.988;8.674;2022-09-09T11:47:40;19.60;99.90
3715;DHT22;1873;49.988;8.674;2022-09-09T11:50:37;19.50;99.90
3715;DHT22;1873;49.988;8.674;2022-09-09T11:53:22;19.40;99.90
3715;DHT22;1873;49.988;8.674;2022-09-09T11:56:11;19.30;99.90
3715;DHT22;1873;49.988;8.674;2022-09-09T11:58:54;19.30;99.90
3715;DHT22;1873;49.988;8.674;2022-09-09T12:01:29;19.20;99.90
3715;DHT22;1873;49.988;8.674;2022-09-09T12:04:26;19.10;99.90
3715;DHT22;1873;49.988;8.674;2022-09-09T12:06:58;19.20;99.90
3715;DHT22;1873;49.988;8.674;2022-09-09T12:09:40;19.20;99.90
3715;DHT22;1873;49.988;8.674;2022-09-09T12:12:29;19.10;99.90
3715;DHT22;1873;49.988;8.674;2022-09-09T12:15:25;19.20;99.90
3715;DHT22;1873;49.988;8.674;2022-09-09T12:17:57;19.30;99.90
3715;DHT22;1873;49.988;8.674;2022-09-09T12:21:06;19.30;99.90
3715;DHT22;1873;49.988;8.674;2022-09-09T12:23:40;19.30;99.90
3715;DHT22;1873;49.988;8.674;2022-09-09T12:26:28;19.30;99.90
3715;DHT22;1873;49.988;8.674;2022-09-09T12:29:09;19.30;99.90
3715;DHT22;1873;49.988;8.674;2022-09-09T12:31:46;19.30;99.90
3715;DHT22;1873;49.988;8.674;2022-09-09T12:34:20;19.30;99.90
3715;DHT22;1873;49.988;8.674;2022-09-09T12:36:57;19.40;99.90
3715;DHT22;1873;49.988;8.674;2022-09-09T12:39:32;19.40;99.90
3715;DHT22;1873;49.988;8.674;2022-09-09T12:42:18;19.40;99.90
3715;DHT22;1873;49.988;8.674;2022-09-09T12:44:54;19.40;99.90
3715;DHT22;1873;49.988;8.674;2022-09-09T12:47:28;19.40;99.90
3715;DHT22;1873;49.988;8.674;2022-09-09T12:49:59;19.40;99.90
3715;DHT22;1873;49.988;8.674;2022-09-09T12:52:31;19.40;99.90
3715;DHT22;1873;49.988;8.674;2022-09-09T12:55:04;19.30;99.90
3715;DHT22;1873;49.988;8.674;2022-09-09T12:57:38;19.30;99.90
3715;DHT22;1873;49.988;8.674;2022-09-09T13:00:13;19.20;99.90
3715;DHT22;1873;49.988;8.674;2022-09-09T13:02:47;19.30;99.90
3715;DHT22;1873;49.988;8.674;2022-09-09T13:05:19;19.30;99.90
3715;DHT22;1873;49.988;8.674;2022-09-09T13:07:48;19.30;99.90
3715;DHT22;1873;49.988;8.674;2022-09-09T13:10:24;19.30;99.90
3715;DHT22;1873;49.988;8.674;2022-09-09T13:13:17;19.30;99.90
3715;DHT22;1873;49.988;8.674;2022-09-09T13:15:52;19.20;99.90
3715;DHT22;1873;49.988;8.674;2022-09-09T13:18:23;19.20;99.90
3715;DHT22;1873;49.988;8.674;2022-09-09T13:20:53;19.10;99.90
3715;DHT22;1873;49.988;8.674;2022-09-09T13:23:26;19.00;99.90
3715;DHT22;1873;49.988;8.674;2022-09-09T13:25:58;19.00;99.90
3715;DHT22;1873;49.988;8.674;2022-09-09T13:28:29;18.90;99.90
3715;DHT22;1873;49.988;8.674;2022-09-09T13:31:00;19.00;99.90
3715;DHT22;1873;49.988;8.674;2022-09-09T13:33:32;19.00;99.90
3715;DHT22;1873;49.988;8.674;2022-09-09T13:36:03;19.00;99.90
3715;DHT22;1873;49.988;8.674;2022-09-09T13:38:35;19.00;99.90
3715;DHT22;1873;49.988;8.674;2022-09-09T13:41:06;19.00;99.90
3715;DHT22;1873;49.988;8.674;2022-09-09T13:43:41;19.00;99.90
3715;DHT22;1873;49.988;8.674;2022-09-09T13:46:25;19.00;99.90
3715;DHT22;1873;49.988;8.674;2022-09-09T13:48:55;19.00;99.90
3715;DHT22;1873;49.988;8.674;2022-09-09T13:51:30;19.00;99.90
3715;DHT22;1873;49.988;8.674;2022-09-09T13:54:00;19.10;99.90
3715;DHT22;1873;49.988;8.674;2022-09-09T13:56:28;19.20;99.90
3715;DHT22;1873;49.988;8.674;2022-09-09T13:58:59;19.40;99.90
3715;DHT22;1873;49.988;8.674;2022-09-09T14:01:27;19.40;99.90
3715;DHT22;1873;49.988;8.674;2022-09-09T14:03:56;19.50;99.90
3715;DHT22;1873;49.988;8.674;2022-09-09T14:06:27;19.60;99.90
3715;DHT22;1873;49.988;8.674;2022-09-09T14:08:56;19.60;99.90
3715;DHT22;1873;49.988;8.674;2022-09-09T14:11:25;19.60;99.90
3715;DHT22;1873;49.988;8.674;2022-09-09T14:13:53;19.50;99.90
3715;DHT22;1873;49.988;8.674;2022-09-09T14:16:24;19.40;99.90
3715;DHT22;1873;49.988;8.674;2022-09-09T14:18:54;19.40;99.90
3715;DHT22;1873;49.988;8.674;2022-09-09T14:21:24;19.40;99.90
3715;DHT22;1873;49.988;8.674;2022-09-09T14:23:52;19.50;99.90
3715;DHT22;1873;49.988;8.674;2022-09-09T14:26:22;19.40;99.90
3715;DHT22;1873;49.988;8.674;2022-09-09T14:28:51;19.40;99.90
3715;DHT22;1873;49.988;8.674;2022-09-09T14:31:23;19.40;99.90
3715;DHT22;1873;49.988;8.674;2022-09-09T14:33:52;19.30;99.90
3715;DHT22;1873;49.988;8.674;2022-09-09T14:36:22;19.30;99.90
3715;DHT22;1873;49.988;8.674;2022-09-09T14:38:56;19.20;99.90
3715;DHT22;1873;49.988;8.674;2022-09-09T14:41:25;19.10;99.90
3715;DHT22;1873;49.988;8.674;2022-09-09T14:43:54;19.20;99.90
3715;DHT22;1873;49.988;8.674;2022-09-09T14:46:24;19.10;99.90
3715;DHT22;1873;49.988;8.674;2022-09-09T14:48:53;19.10;99.90
3715;DHT22;1873;49.988;8.674;2022-09-09T14:51:23;19.10;99.90
3715;DHT22;1873;49.988;8.674;2022-09-09T14:53:52;19.20;99.90
3715;DHT22;1873;49.988;8.674;2022-09-09T14:56:24;19.20;99.90
3715;DHT22;1873;49.988;8.674;2022-09-09T14:58:53;19.10;99.90
3715;DHT22;1873;49.988;8.674;2022-09-09T15:01:25;19.10;99.90
3715;DHT22;1873;49.988;8.674;2022-09-09T15:03:56;19.10;99.90
3715;DHT22;1873;49.988;8.674;2022-09-09T15:06:26;19.00;99.90
3715;DHT22;1873;49.988;8.674;2022-09-09T15:08:57;19.00;99.90
3715;DHT22;1873;49.988;8.674;2022-09-09T15:11:27;19.00;99.90
3715;DHT22;1873;49.988;8.674;2022-09-09T15:13:57;19.00;99.90
3715;DHT22;1873;49.988;8.674;2022-09-09T15:16:28;19.00;99.90
3715;DHT22;1873;49.988;8.674;2022-09-09T15:18:57;19.00;99.90
3715;DHT22;1873;49.988;8.674;2022-09-09T15:21:31;19.10;99.90
3715;DHT22;1873;49.988;8.674;2022-09-09T15:24:00;19.20;99.90
3715;DHT22;1873;49.988;8.674;2022-09-09T15:26:28;19.20;99.90
3715;DHT22;1873;49.988;8.674;2022-09-09T15:28:57;19.30;99.90
3715;DHT22;1873;49.988;8.674;2022-09-09T15:31:28;19.30;99.90
3715;DHT22;1873;49.988;8.674;2022-09-09T15:34:01;19.40;99.90
3715;DHT22;1873;49.988;8.674;2022-09-09T15:36:31;19.40;99.90
3715;DHT22;1873;49.988;8.674;2022-09-09T15:39:00;19.50;99.90
3715;DHT22;1873;49.988;8.674;2022-09-09T15:41:31;19.50;99.90
3715;DHT22;1873;49.988;8.674;2022-09-09T15:44:00;19.50;99.90
3715;DHT22;1873;49.988;8.674;2022-09-09T15:46:32;19.40;99.90
3715;DHT22;1873;49.988;8.674;2022-09-09T15:49:05;19.50;99.90
3715;DHT22;1873;49.988;8.674;2022-09-09T15:51:37;19.50;99.90
3715;DHT22;1873;49.988;8.674;2022-09-09T15:54:12;19.50;99.90
3715;DHT22;1873;49.988;8.674;2022-09-09T15:56:42;19.50;99.90
3715;DHT22;1873;49.988;8.674;2022-09-09T15:59:11;19.60;99.90
3715;DHT22;1873;49.988;8.674;2022-09-09T16:01:45;19.60;99.90
3715;DHT22;1873;49.988;8.674;2022-09-09T16:04:13;19.50;99.90
3715;DHT22;1873;49.988;8.674;2022-09-09T16:06:42;19.50;99.90
3715;DHT22;1873;49.988;8.674;2022-09-09T16:09:11;19.50;99.90
3715;DHT22;1873;49.988;8.674;2022-09-09T16:11:39;19.40;99.90
3715;DHT22;1873;49.988;8.674;2022-09-09T16:14:08;19.30;99.90
3715;DHT22;1873;49.988;8.674;2022-09-09T16:16:37;19.20;99.90
3715;DHT22;1873;49.988;8.674;2022-09-09T16:19:11;19.20;99.90
3715;DHT22;1873;49.988;8.674;2022-09-09T16:21:44;19.20;99.90
3715;DHT22;1873;49.988;8.674;2022-09-09T16:24:15;19.20;99.90
3715;DHT22;1873;49.988;8.674;2022-09-09T16:26:46;19.10;99.90
3715;DHT22;1873;49.988;8.674;2022-09-09T16:29:16;19.10;99.90
3715;DHT22;1873;49.988;8.674;2022-09-09T16:31:45;19.00;99.90
3715;DHT22;1873;49.988;8.674;2022-09-09T16:34:17;19.00;99.90
3715;DHT22;1873;49.988;8.674;2022-09-09T16:36:47;19.00;99.90
3715;DHT22;1873;49.988;8.674;2022-09-09T16:39:18;18.90;99.90
3715;DHT22;1873;49.988;8.674;2022-09-09T16:41:48;18.90;99.90
3715;DHT22;1873;49.988;8.674;2022-09-09T16:44:17;18.80;99.90
3715;DHT22;1873;49.988;8.674;2022-09-09T16:46:47;18.80;99.90
3715;DHT22;1873;49.988;8.674;2022-09-09T16:49:27;18.80;99.90